createdAt,value
2022-10-24T00:00:42.398Z,7.85
2022-10-24T00:07:33.605Z,8.32
2022-10-24T00:10:56.486Z,7.88
2022-10-24T00:14:20.761Z,7.80
2022-10-24T00:17:43.692Z,7.10
2022-10-24T00:21:07.179Z,8.50
2022-10-24T00:24:30.049Z,7.70
2022-10-24T00:27:52.951Z,6.82
2022-10-24T00:31:19.595Z,7.57
2022-10-24T00:34:43.278Z,7.45
2022-10-24T00:38:06.168Z,7.32
2022-10-24T00:41:33.377Z,6.75
2022-10-24T00:44:56.269Z,6.88
2022-10-24T00:48:25.156Z,7.15
2022-10-24T00:51:52.036Z,6.35
2022-10-24T00:55:16.081Z,8.05
2022-10-24T00:58:40.584Z,7.07
2022-10-24T01:02:04.056Z,7.10
2022-10-24T01:05:36.552Z,6.43
2022-10-24T01:09:10.316Z,7.22
2022-10-24T01:12:41.472Z,7.20
2022-10-24T01:16:10.959Z,6.85
2022-10-24T01:20:00.363Z,7.80
2022-10-24T01:24:00.980Z,6.72
2022-10-24T01:27:49.280Z,6.75
2022-10-24T01:31:18.503Z,7.10
2022-10-24T01:34:47.800Z,6.78
2022-10-24T01:38:15.876Z,7.13
2022-10-24T01:41:41.496Z,6.20
2022-10-24T01:45:06.839Z,7.18
2022-10-24T01:48:34.427Z,6.70
2022-10-24T01:52:01.034Z,6.30
2022-10-24T01:55:24.341Z,6.20
2022-10-24T01:58:47.276Z,7.50
2022-10-24T02:02:15.790Z,6.97
2022-10-24T02:05:50.425Z,6.57
2022-10-24T02:09:18.366Z,7.03
2022-10-24T02:12:51.114Z,5.68
2022-10-24T02:16:17.184Z,6.22
2022-10-24T02:19:40.107Z,6.72
2022-10-24T02:23:08.710Z,6.40
2022-10-24T02:26:35.543Z,6.78
2022-10-24T02:30:02.914Z,5.07
2022-10-24T02:33:27.426Z,6.10
2022-10-24T02:36:52.687Z,5.55
2022-10-24T02:40:19.048Z,5.70
2022-10-24T02:43:43.349Z,6.25
2022-10-24T02:47:08.790Z,5.43
2022-10-24T02:50:33.135Z,5.95
2022-10-24T02:53:57.060Z,5.50
2022-10-24T02:57:21.877Z,6.18
2022-10-24T03:00:45.192Z,5.95
2022-10-24T03:04:08.191Z,8.07
2022-10-24T03:10:59.127Z,6.50
2022-10-24T03:14:23.391Z,7.50
2022-10-24T03:17:49.027Z,6.30
2022-10-24T03:21:11.983Z,5.32
2022-10-24T03:24:43.987Z,6.07
2022-10-24T03:28:07.634Z,5.35
2022-10-24T03:31:32.242Z,6.25
2022-10-24T03:34:55.366Z,6.07
2022-10-24T03:38:18.272Z,5.28
2022-10-24T03:41:41.269Z,5.57
2022-10-24T03:45:04.957Z,6.00
2022-10-24T03:48:29.282Z,5.93
2022-10-24T03:51:52.198Z,5.80
2022-10-24T03:55:15.252Z,6.07
2022-10-24T03:58:38.232Z,5.32
2022-10-24T04:02:01.727Z,5.65
2022-10-24T04:05:26.168Z,5.68
2022-10-24T04:08:49.131Z,5.28
2022-10-24T04:12:12.003Z,5.03
2022-10-24T04:15:35.179Z,5.10
2022-10-24T04:18:58.074Z,5.57
2022-10-24T04:22:22.627Z,5.03
2022-10-24T04:25:46.508Z,4.85
2022-10-24T04:29:09.543Z,5.28
2022-10-24T04:32:32.452Z,5.43
2022-10-24T04:35:55.362Z,4.60
2022-10-24T04:39:20.149Z,5.20
2022-10-24T04:42:43.294Z,3.90
2022-10-24T04:46:06.470Z,4.75
2022-10-24T04:49:29.373Z,5.13
2022-10-24T04:52:52.241Z,5.10
2022-10-24T04:56:16.529Z,5.38
2022-10-24T04:59:39.506Z,5.60
2022-10-24T05:03:02.503Z,6.00
2022-10-24T05:06:25.407Z,4.43
2022-10-24T05:09:48.384Z,6.28
2022-10-24T05:13:12.648Z,5.68
2022-10-24T05:16:35.593Z,5.20
2022-10-24T05:19:58.554Z,4.95
2022-10-24T05:23:21.474Z,5.57
2022-10-24T05:26:44.377Z,5.25
2022-10-24T05:30:09.769Z,5.45
2022-10-24T05:33:32.700Z,4.93
2022-10-24T05:36:55.589Z,5.70
2022-10-24T05:40:18.816Z,4.97
2022-10-24T05:43:41.706Z,5.03
2022-10-24T05:47:06.118Z,5.65
2022-10-24T05:50:30.006Z,5.35
2022-10-24T05:53:52.878Z,5.53
2022-10-24T05:57:15.759Z,5.15
2022-10-24T06:00:38.636Z,5.63
2022-10-24T06:04:02.855Z,4.85
2022-10-24T06:07:26.182Z,5.72
2022-10-24T06:10:49.767Z,5.70
2022-10-24T06:14:12.681Z,4.93
2022-10-24T06:17:37.078Z,5.13
2022-10-24T06:21:02.182Z,3.92
2022-10-24T06:24:25.099Z,4.82
2022-10-24T06:27:48.508Z,4.85
2022-10-24T06:31:12.840Z,4.80
2022-10-24T06:34:36.044Z,4.43
2022-10-24T06:38:00.323Z,4.43
2022-10-24T06:41:23.233Z,4.63
2022-10-24T06:44:46.223Z,4.70
2022-10-24T06:48:10.528Z,4.28
2022-10-24T06:51:33.407Z,5.15
2022-10-24T06:54:57.708Z,4.95
2022-10-24T06:58:20.598Z,4.60
2022-10-24T07:01:44.139Z,5.07
2022-10-24T07:05:09.158Z,5.15
2022-10-24T07:08:32.097Z,4.60
2022-10-24T07:11:56.398Z,5.40
2022-10-24T07:15:19.282Z,5.07
2022-10-24T07:18:42.608Z,4.35
2022-10-24T07:22:06.075Z,4.57
2022-10-24T07:25:28.979Z,4.80
2022-10-24T07:28:55.966Z,4.20
2022-10-24T07:32:19.082Z,5.65
2022-10-24T07:35:42.874Z,4.85
2022-10-24T07:39:06.021Z,4.25
2022-10-24T07:42:28.941Z,4.85
2022-10-24T07:45:53.180Z,3.83
2022-10-24T07:49:16.198Z,4.60
2022-10-24T07:52:39.079Z,4.05
2022-10-24T07:56:02.465Z,4.53
2022-10-24T07:59:41.405Z,4.07
2022-10-24T08:03:06.279Z,4.13
2022-10-24T08:06:31.515Z,4.15
2022-10-24T08:09:54.444Z,4.45
2022-10-24T08:13:17.369Z,4.53
2022-10-24T08:16:42.656Z,3.83
2022-10-24T08:20:09.357Z,3.38
2022-10-24T08:23:33.444Z,4.25
2022-10-24T08:26:56.915Z,3.20
2022-10-24T08:30:20.296Z,5.05
2022-10-24T08:33:43.755Z,4.15
2022-10-24T08:37:08.022Z,3.65
2022-10-24T08:40:31.313Z,3.42
2022-10-24T08:43:55.030Z,3.92
2022-10-24T08:47:27.191Z,4.00
2022-10-24T08:50:54.566Z,2.97
2022-10-24T08:54:23.736Z,4.20
2022-10-24T08:57:50.593Z,3.30
2022-10-24T09:01:22.663Z,2.50
2022-10-24T09:04:52.338Z,3.30
2022-10-24T09:08:23.924Z,3.72
2022-10-24T09:11:53.188Z,3.40
2022-10-24T09:15:18.740Z,3.20
2022-10-24T09:18:44.335Z,2.83
2022-10-24T09:22:10.976Z,3.28
2022-10-24T09:25:37.545Z,2.90
2022-10-24T09:29:01.830Z,3.97
2022-10-24T09:32:27.829Z,3.42
2022-10-24T09:35:52.842Z,3.10
2022-10-24T09:39:26.120Z,3.17
2022-10-24T09:42:53.618Z,3.20
2022-10-24T09:46:19.901Z,3.08
2022-10-24T09:49:42.861Z,2.80
2022-10-24T09:53:06.182Z,2.13
2022-10-24T09:56:38.845Z,2.33
2022-10-24T10:00:03.502Z,3.22
2022-10-24T10:03:30.060Z,3.42
2022-10-24T10:06:53.317Z,3.75
2022-10-24T10:10:35.104Z,3.95
2022-10-24T10:14:00.411Z,3.28
2022-10-24T10:17:26.318Z,2.80
2022-10-24T10:21:01.146Z,2.70
2022-10-24T10:24:36.972Z,2.40
2022-10-24T10:28:02.415Z,3.03
2022-10-24T10:31:34.638Z,3.25
2022-10-24T10:35:03.518Z,2.95
2022-10-24T10:38:43.864Z,3.03
2022-10-24T10:42:13.019Z,3.20
2022-10-24T10:45:39.283Z,2.72
2022-10-24T10:49:11.930Z,3.38
2022-10-24T10:52:45.431Z,2.85
2022-10-24T10:56:23.032Z,2.75
2022-10-24T10:59:55.832Z,4.30
2022-10-24T11:03:32.097Z,3.40
2022-10-24T11:07:03.844Z,3.88
2022-10-24T11:10:33.310Z,3.80
2022-10-24T11:14:01.541Z,3.90
2022-10-24T11:17:27.258Z,2.55
2022-10-24T11:20:55.099Z,3.47
2022-10-24T11:24:21.905Z,2.33
2022-10-24T11:27:50.862Z,2.63
2022-10-24T11:31:18.323Z,3.30
2022-10-24T11:34:46.297Z,3.03
2022-10-24T11:38:14.622Z,3.00
2022-10-24T11:41:49.177Z,2.78
2022-10-24T11:45:14.547Z,3.00
2022-10-24T11:48:42.124Z,3.38
2022-10-24T11:52:13.769Z,2.65
2022-10-24T11:55:42.230Z,3.30
2022-10-24T11:59:08.026Z,3.30
2022-10-24T12:02:50.054Z,2.83
2022-10-24T12:06:42.168Z,2.88
2022-10-24T12:10:22.099Z,2.83
2022-10-24T12:14:09.542Z,2.88
2022-10-24T12:18:06.193Z,2.60
2022-10-24T12:21:39.700Z,2.75
2022-10-24T12:25:09.105Z,2.95
2022-10-24T12:28:32.204Z,3.10
2022-10-24T12:31:55.480Z,2.70
2022-10-24T12:35:46.891Z,2.60
2022-10-24T12:39:11.398Z,2.38
2022-10-24T12:43:07.623Z,2.30
2022-10-24T12:46:54.964Z,2.20
2022-10-24T12:50:54.759Z,1.90
2022-10-24T12:54:19.586Z,1.80
2022-10-24T12:57:47.393Z,2.20
2022-10-24T13:01:23.295Z,2.45
2022-10-24T13:05:00.984Z,2.10
2022-10-24T13:08:43.602Z,2.53
2022-10-24T13:12:20.422Z,2.28
2022-10-24T13:15:49.174Z,2.38
2022-10-24T13:19:18.429Z,2.40
2022-10-24T13:22:43.182Z,1.98
2022-10-24T13:26:07.011Z,2.03
2022-10-24T13:30:23.942Z,2.33
2022-10-24T13:33:48.893Z,1.85
2022-10-24T13:37:21.037Z,2.20
2022-10-24T13:40:45.592Z,2.42
2022-10-24T13:44:17.204Z,1.67
2022-10-24T13:47:46.274Z,1.65
2022-10-24T13:51:18.207Z,1.85
2022-10-24T13:54:46.414Z,1.90
2022-10-24T13:58:11.452Z,2.08
2022-10-24T14:01:36.210Z,1.65
2022-10-24T14:05:01.509Z,1.95
2022-10-24T14:08:27.594Z,1.63
2022-10-24T14:11:50.562Z,2.05
2022-10-24T14:15:19.944Z,2.42
2022-10-24T14:18:46.297Z,1.70
2022-10-24T14:22:21.323Z,2.33
2022-10-24T14:25:44.352Z,2.63
2022-10-24T14:29:20.073Z,2.13
2022-10-24T14:32:43.327Z,1.67
2022-10-24T14:36:07.066Z,2.40
2022-10-24T14:39:31.601Z,2.00
2022-10-24T14:42:54.814Z,2.70
2022-10-24T14:46:35.504Z,2.70
2022-10-24T14:49:59.247Z,2.08
2022-10-24T14:53:25.558Z,2.45
2022-10-24T14:56:52.034Z,2.08
2022-10-24T15:00:21.487Z,2.67
2022-10-24T15:03:53.578Z,2.92
2022-10-24T15:07:28.308Z,2.22
2022-10-24T15:11:03.396Z,1.55
2022-10-24T15:14:47.610Z,2.13
2022-10-24T15:18:18.448Z,2.25
2022-10-24T15:21:44.813Z,1.80
2022-10-24T15:25:18.266Z,2.10
2022-10-24T15:28:48.243Z,1.92
2022-10-24T15:32:12.537Z,2.45
2022-10-24T15:35:37.302Z,2.83
2022-10-24T15:39:02.216Z,2.60
2022-10-24T15:42:25.139Z,2.30
2022-10-24T15:45:48.158Z,2.30
2022-10-24T15:49:12.777Z,2.95
2022-10-24T15:52:35.895Z,2.30
2022-10-24T15:55:59.117Z,2.55
2022-10-24T15:59:27.710Z,2.42
2022-10-24T16:02:53.408Z,1.85
2022-10-24T16:06:17.781Z,2.63
2022-10-24T16:09:40.770Z,2.00
2022-10-24T16:13:03.688Z,1.77
2022-10-24T16:16:26.773Z,3.05
2022-10-24T16:19:49.692Z,2.00
2022-10-24T16:23:17.105Z,1.55
2022-10-24T16:26:40.770Z,2.10
2022-10-24T16:30:03.797Z,2.15
2022-10-24T16:33:26.706Z,2.17
2022-10-24T16:36:53.298Z,2.00
2022-10-24T16:40:18.194Z,2.10
2022-10-24T16:43:42.559Z,2.88
2022-10-24T16:47:07.222Z,2.90
2022-10-24T16:50:31.285Z,2.67
2022-10-24T16:53:54.449Z,2.63
2022-10-24T16:57:18.747Z,2.33
2022-10-24T17:00:42.023Z,3.22
2022-10-24T17:04:04.974Z,3.28
2022-10-24T17:07:27.910Z,3.15
2022-10-24T17:10:50.886Z,3.28
2022-10-24T17:14:15.345Z,3.13
2022-10-24T17:17:39.780Z,3.70
2022-10-24T17:21:03.626Z,4.30
2022-10-24T17:24:27.949Z,3.50
2022-10-24T17:27:51.762Z,3.38
2022-10-24T17:31:16.944Z,3.72
2022-10-24T17:34:40.349Z,4.05
2022-10-24T17:38:12.989Z,4.38
2022-10-24T17:41:39.154Z,4.00
2022-10-24T17:45:02.355Z,4.35
2022-10-24T17:48:26.903Z,4.07
2022-10-24T17:51:50.089Z,3.72
2022-10-24T17:55:40.911Z,5.40
2022-10-24T17:59:02.086Z,4.70
2022-10-24T18:02:25.095Z,4.03
2022-10-24T18:05:49.652Z,3.92
2022-10-24T18:09:12.840Z,4.05
2022-10-24T18:12:38.014Z,3.58
2022-10-24T18:16:06.348Z,4.20
2022-10-24T18:19:29.438Z,4.70
2022-10-24T18:22:53.757Z,3.65
2022-10-24T18:26:18.965Z,4.57
2022-10-24T18:29:41.875Z,6.28
2022-10-24T18:33:05.337Z,4.38
2022-10-24T18:36:31.160Z,4.60
2022-10-24T18:39:56.231Z,4.72
2022-10-24T18:43:19.311Z,4.88
2022-10-24T18:46:43.221Z,5.22
2022-10-24T18:50:07.099Z,4.43
2022-10-24T18:53:33.277Z,6.90
2022-10-24T18:56:58.955Z,5.43
2022-10-24T19:00:24.002Z,6.97
2022-10-24T19:03:47.373Z,4.60
2022-10-24T19:07:11.665Z,6.00
2022-10-24T19:10:34.853Z,4.50
2022-10-24T19:13:59.313Z,5.85
2022-10-24T19:17:24.165Z,4.53
2022-10-24T19:20:47.086Z,4.72
2022-10-24T19:24:11.195Z,4.72
2022-10-24T19:27:34.114Z,4.93
2022-10-24T19:30:59.136Z,4.95
2022-10-24T19:34:22.036Z,5.75
2022-10-24T19:37:45.610Z,6.60
2022-10-24T19:41:11.599Z,5.10
2022-10-24T19:44:34.867Z,4.07
2022-10-24T19:47:59.660Z,4.45
2022-10-24T19:51:23.985Z,5.30
2022-10-24T19:54:46.917Z,4.10
2022-10-24T19:58:10.186Z,4.00
2022-10-24T20:01:33.324Z,4.10
2022-10-24T20:04:57.748Z,4.25
2022-10-24T20:08:20.667Z,4.63
2022-10-24T20:11:45.935Z,4.00
2022-10-24T20:15:10.045Z,4.53
2022-10-24T20:18:34.200Z,3.70
2022-10-24T20:22:01.615Z,4.07
2022-10-24T20:25:25.458Z,4.75
2022-10-24T20:28:50.825Z,3.95
2022-10-24T20:32:13.714Z,3.88
2022-10-24T20:35:36.846Z,3.85
2022-10-24T20:39:01.472Z,4.00
2022-10-24T20:42:24.614Z,3.33
2022-10-24T20:45:47.543Z,3.20
2022-10-24T20:49:10.464Z,4.68
2022-10-24T20:52:33.401Z,3.60
2022-10-24T20:55:57.659Z,3.97
2022-10-24T20:59:20.531Z,4.22
2022-10-24T21:02:43.555Z,3.80
2022-10-24T21:06:14.961Z,4.80
2022-10-24T21:09:37.856Z,4.40
2022-10-24T21:13:02.159Z,4.55
2022-10-24T21:16:26.412Z,3.47
2022-10-24T21:19:49.621Z,3.67
2022-10-24T21:23:13.080Z,3.58
2022-10-24T21:26:38.224Z,3.72
2022-10-24T21:30:02.956Z,3.83
2022-10-24T21:33:25.938Z,3.10
2022-10-24T21:36:49.297Z,3.40
2022-10-24T21:40:12.745Z,4.72
2022-10-24T21:43:37.291Z,3.58
2022-10-24T21:47:01.570Z,2.70
2022-10-24T21:50:24.450Z,3.83
2022-10-24T21:53:49.519Z,3.33
2022-10-24T21:57:12.401Z,2.35
2022-10-24T22:00:36.913Z,2.95
2022-10-24T22:04:06.021Z,3.38
2022-10-24T22:07:28.907Z,3.40
2022-10-24T22:10:59.590Z,2.75
2022-10-24T22:14:22.512Z,3.17
2022-10-24T22:17:45.704Z,3.00
2022-10-24T22:21:26.157Z,3.42
2022-10-24T22:24:49.191Z,2.70
2022-10-24T22:28:12.442Z,2.60
2022-10-24T22:31:36.367Z,3.55
2022-10-24T22:34:59.802Z,2.70
2022-10-24T22:38:24.368Z,3.00
2022-10-24T22:41:48.646Z,2.95
2022-10-24T22:45:14.016Z,3.20
2022-10-24T22:48:40.216Z,2.60
2022-10-24T22:52:03.752Z,2.53
2022-10-24T22:55:35.954Z,2.47
2022-10-24T22:58:59.879Z,2.90
2022-10-24T23:02:31.221Z,3.20
2022-10-24T23:06:01.296Z,2.90
2022-10-24T23:09:24.185Z,3.00
2022-10-24T23:12:49.159Z,3.08
2022-10-24T23:16:25.542Z,2.75
2022-10-24T23:19:48.964Z,2.85
2022-10-24T23:23:28.076Z,2.97
2022-10-24T23:27:13.234Z,2.38
2022-10-24T23:30:38.001Z,2.95
2022-10-24T23:34:01.484Z,2.85
2022-10-24T23:37:31.164Z,2.90
2022-10-24T23:40:54.759Z,2.50
2022-10-24T23:44:18.092Z,2.85
2022-10-24T23:47:59.326Z,2.47
2022-10-24T23:51:30.896Z,2.15
2022-10-24T23:54:54.278Z,2.30
2022-10-24T23:58:18.559Z,2.45
